Aérodrome :
LOGIN :

S'inscrire | Disclaimer

   EN    FR    IT 

 










Légende :    VFR   VFR Marginal   IFR   IFR Intensif   IFR Très Intensif
Visi : 
Plafond : 
>= 8 km
>= 3000ft
5 à 8 km
1000 à 3000 ft
1500m à 5 km
500 à 1000 ft
800 à 1500m
200 à 500 ft
< 800m
< 200 ft
Symboles :   Orages  Brouillard  Fortes neiges  Fortes précipitations  Vent > 20 kt
SIGMETs :   Divers  Orages  Givrage  Turbulence  Onde Orograph.  Cendres Volcan.







- Altitude de l'aérodrome : 6 ft
- Code IATA : PSA


LIRP - Galileo Galilei Pisa

DERNIER METAR :
  • 160645Z 11004KT 060V160 CAVOK 12/06 Q1022 NOSIG

METARs EXPIRÉS :
  • 160615Z 11005KT 070V180 CAVOK 12/07 Q1022 NOSIG
  • 160545Z 10008KT CAVOK 12/07 Q1022 NOSIG
  • 160515Z 10008KT CAVOK 13/07 Q1022 NOSIG
  • 160445Z 11009KT CAVOK 13/07 Q1022 NOSIG
  • 160415Z 09011KT CAVOK 13/08 Q1022 NOSIG

TAF COR TAF LIRP
Valide du 16 à 06h jusqu'au 17 à 06h UTC


160500Z 1606/1706 11010KT CAVOK
TEMPO 1608/1706 07015G25KT
Pas de NOTAMs connus pour ce terrain.
1 SIGMET publié pour la FIR Milano (LIMM) :
 
Turbulence forte
LIMM SIGMET 2 VALID 160430/160830 LIIP
LIMM MILANO FIR SEV TURB FCST E OF LINE N4643 E01250 - N4330 E01230 FL300/430 STNR NC=



MET'MAP, la Météo Aéronautique d'un coup d'oeil ! - Copyright ORBIFLY Décembre 2007 - Disclaimer

ORBIFLY MET'MAP TEAM :

Programmation & Développement : Alexandra Zaïnal
Conception & Développement : Baudouin d'Aumeries
Co-Programmation & Développement : Marc-Olivier Méhu
Soutien technique & logistique : Manuel Goepfert

Contact : metmap@orbifly.com




SOURCES & CREDITS :

   NOAA